Atwater, California
Current Conditions -  °F | °C
As of 2:55 AM on Monday 20 Oct 2014 (Local Time) from KMER Reporting Station
Clear Clear  
Wind Chill: 59°   Ceiling: Unl
Heat Index: 59°   Visibility: 7mi
Dew Point: 59°   Wind: 7mph
Humidity: 100%   Direction: 10°N
Pressure: 29.89"   Gusts: NA
Location:  37.35°N, 120.6°W
Report Text: KMER 200955Z AUTO 01006KT 7SM CLR 15/15 A2989 RMK AO1
Loading
Personal Weather Stations






























Interactive Weather Map
Tropical Storm Tracking
New forecast layout! Learn more

10-Day Weather Forecast

Advertisements
Track Severe Weather on mobile